createdAt,value
2023-03-27T00:02:07.034Z,0.60
2023-03-27T00:04:38.427Z,0.77
2023-03-27T00:07:10.947Z,0.70
2023-03-27T00:09:45.867Z,0.93
2023-03-27T00:12:18.132Z,0.70
2023-03-27T00:14:50.716Z,0.65
2023-03-27T00:17:23.995Z,0.60
2023-03-27T00:19:56.186Z,0.70
2023-03-27T00:22:27.784Z,0.60
2023-03-27T00:25:00.147Z,0.50
2023-03-27T00:27:34.019Z,0.60
2023-03-27T00:30:08.147Z,0.60
2023-03-27T00:32:40.177Z,0.60
2023-03-27T00:35:17.191Z,0.73
2023-03-27T00:37:50.060Z,0.70
2023-03-27T00:40:22.614Z,0.70
2023-03-27T00:42:59.267Z,0.80
2023-03-27T00:45:35.051Z,0.60
2023-03-27T00:48:09.513Z,0.77
2023-03-27T00:50:45.402Z,0.80
2023-03-27T00:53:21.728Z,0.80
2023-03-27T00:55:55.927Z,0.63
2023-03-27T00:58:33.390Z,0.75
2023-03-27T01:01:06.836Z,0.70
2023-03-27T01:03:40.837Z,1.10
2023-03-27T01:06:17.496Z,1.80
2023-03-27T01:08:54.555Z,0.88
2023-03-27T01:11:29.993Z,0.80
2023-03-27T01:14:15.174Z,1.10
2023-03-27T01:16:58.871Z,1.02
2023-03-27T01:20:08.721Z,1.10
2023-03-27T01:22:42.206Z,1.00
2023-03-27T01:25:29.212Z,0.80
2023-03-27T01:28:13.935Z,0.80
2023-03-27T01:31:03.556Z,0.70
2023-03-27T01:33:58.224Z,1.15
2023-03-27T01:36:53.388Z,0.60
2023-03-27T01:40:11.917Z,0.90
2023-03-27T01:43:01.796Z,0.60
2023-03-27T01:45:50.144Z,0.50
2023-03-27T01:48:25.045Z,0.80
2023-03-27T01:51:12.122Z,0.63
2023-03-27T01:53:55.209Z,0.55
2023-03-27T01:56:54.131Z,0.57
2023-03-27T01:59:28.765Z,0.80
2023-03-27T02:02:09.770Z,1.05
2023-03-27T02:04:48.941Z,0.90
2023-03-27T02:07:24.640Z,1.48
2023-03-27T02:10:00.399Z,1.60
2023-03-27T02:12:36.634Z,1.10
2023-03-27T02:15:24.129Z,1.00
2023-03-27T02:18:06.703Z,0.80
2023-03-27T02:20:40.776Z,0.80
2023-03-27T02:23:16.049Z,0.80
2023-03-27T02:25:48.811Z,0.50
2023-03-27T02:28:47.848Z,0.63
2023-03-27T02:31:32.386Z,0.80
2023-03-27T02:34:36.080Z,0.70
2023-03-27T02:37:45.846Z,0.77
2023-03-27T02:43:45.022Z,0.65
2023-03-27T02:46:55.891Z,1.23
2023-03-27T02:49:59.819Z,0.68
2023-03-27T02:52:52.783Z,0.40
2023-03-27T02:55:29.859Z,0.55
2023-03-27T02:58:05.701Z,0.52
2023-03-27T03:00:50.305Z,0.77
2023-03-27T03:03:47.227Z,1.50
2023-03-27T03:06:38.989Z,0.80
2023-03-27T03:11:51.733Z,0.70
2023-03-27T03:14:31.345Z,0.60
2023-03-27T03:17:03.546Z,0.70
2023-03-27T03:19:35.273Z,0.70
2023-03-27T03:22:08.178Z,0.77
2023-03-27T03:24:43.522Z,0.60
2023-03-27T03:27:24.042Z,0.70
2023-03-27T03:30:09.072Z,0.70
2023-03-27T03:33:01.529Z,0.73
2023-03-27T03:35:33.307Z,0.70
2023-03-27T03:38:08.251Z,0.70
2023-03-27T03:40:48.249Z,0.80
2023-03-27T03:43:23.138Z,0.70
2023-03-27T03:45:55.034Z,0.82
2023-03-27T03:48:27.096Z,0.82
2023-03-27T03:50:58.979Z,1.00
2023-03-27T03:53:30.927Z,1.05
2023-03-27T03:58:35.332Z,1.33
2023-03-27T04:01:10.786Z,1.00
2023-03-27T04:03:48.776Z,0.90
2023-03-27T04:06:22.279Z,0.80
2023-03-27T04:08:54.949Z,0.60
2023-03-27T04:11:49.900Z,0.60
2023-03-27T04:14:47.630Z,0.70
2023-03-27T04:17:40.026Z,1.20
2023-03-27T04:20:14.997Z,0.77
2023-03-27T04:22:48.648Z,0.73
2023-03-27T04:25:21.123Z,2.33
2023-03-27T04:27:53.068Z,1.45
2023-03-27T04:30:29.480Z,1.10
2023-03-27T04:33:20.690Z,1.35
2023-03-27T04:36:10.574Z,1.13
2023-03-27T04:39:05.333Z,1.10
2023-03-27T04:41:36.854Z,1.35
2023-03-27T04:44:09.239Z,2.33
2023-03-27T04:46:44.799Z,1.73
2023-03-27T04:49:17.760Z,1.30
2023-03-27T04:51:56.970Z,3.20
2023-03-27T04:54:33.501Z,1.55
2023-03-27T04:57:05.383Z,1.40
2023-03-27T04:59:38.574Z,1.00
2023-03-27T05:02:29.246Z,1.05
2023-03-27T05:05:07.507Z,1.38
2023-03-27T05:07:40.998Z,1.40
2023-03-27T05:10:12.803Z,1.52
2023-03-27T05:12:48.987Z,1.15
2023-03-27T05:15:22.117Z,1.00
2023-03-27T05:17:56.399Z,0.95
2023-03-27T05:20:29.904Z,0.80
2023-03-27T05:23:08.578Z,0.70
2023-03-27T05:25:41.017Z,0.70
2023-03-27T05:28:17.131Z,0.93
2023-03-27T05:30:51.399Z,0.70
2023-03-27T05:33:25.305Z,1.10
2023-03-27T05:35:59.014Z,0.90
2023-03-27T05:38:31.451Z,0.70
2023-03-27T05:41:17.810Z,1.00
2023-03-27T05:43:53.213Z,0.80
2023-03-27T05:46:25.779Z,0.73
2023-03-27T05:49:04.529Z,0.90
2023-03-27T05:54:07.466Z,0.90
2023-03-27T05:57:05.381Z,1.00
2023-03-27T06:02:27.390Z,1.55
2023-03-27T06:05:06.258Z,1.10
2023-03-27T06:07:43.004Z,1.27
2023-03-27T06:10:19.327Z,2.13
2023-03-27T06:13:11.485Z,2.97
2023-03-27T06:16:03.602Z,2.10
2023-03-27T06:21:27.232Z,1.83
2023-03-27T06:24:04.433Z,1.42
2023-03-27T06:26:36.318Z,1.25
2023-03-27T06:29:08.615Z,1.20
2023-03-27T06:31:46.629Z,0.93
2023-03-27T06:34:31.819Z,0.98
2023-03-27T06:37:08.547Z,1.00
2023-03-27T06:39:44.579Z,1.00
2023-03-27T06:42:16.224Z,1.20
2023-03-27T06:45:11.008Z,1.20
2023-03-27T06:48:21.652Z,1.38
2023-03-27T06:50:57.548Z,1.30
2023-03-27T06:53:33.189Z,1.40
2023-03-27T06:56:08.432Z,1.50
2023-03-27T06:58:59.584Z,1.77
2023-03-27T07:01:31.772Z,1.60
2023-03-27T07:04:22.830Z,1.73
2023-03-27T07:07:07.083Z,1.45
2023-03-27T07:09:42.446Z,1.23
2023-03-27T07:12:19.269Z,1.10
2023-03-27T07:14:51.797Z,1.00
2023-03-27T07:17:23.047Z,0.90
2023-03-27T07:19:56.812Z,0.90
2023-03-27T07:22:30.663Z,0.95
2023-03-27T07:25:13.854Z,1.13
2023-03-27T07:27:47.320Z,1.30
2023-03-27T07:32:50.333Z,1.15
2023-03-27T07:35:21.631Z,1.58
2023-03-27T07:38:28.176Z,1.65
2023-03-27T07:41:12.940Z,1.60
2023-03-27T07:44:09.804Z,1.30
2023-03-27T07:46:54.152Z,1.30
2023-03-27T07:49:39.281Z,1.30
2023-03-27T07:52:16.868Z,1.20
2023-03-27T07:54:59.584Z,1.40
2023-03-27T07:57:59.793Z,1.40
2023-03-27T08:00:37.464Z,1.45
2023-03-27T08:03:16.054Z,1.60
2023-03-27T08:05:59.752Z,1.27
2023-03-27T08:08:34.319Z,1.33
2023-03-27T08:11:06.997Z,1.30
2023-03-27T08:13:42.771Z,1.10
2023-03-27T08:16:20.287Z,1.00
2023-03-27T08:18:51.713Z,1.08
2023-03-27T08:21:24.091Z,0.88
2023-03-27T08:23:57.830Z,1.30
2023-03-27T08:26:38.812Z,1.30
2023-03-27T08:29:13.504Z,1.10
2023-03-27T08:31:46.596Z,1.20
2023-03-27T08:34:19.174Z,1.40
2023-03-27T08:36:54.101Z,1.48
2023-03-27T08:39:27.204Z,1.48
2023-03-27T08:42:10.686Z,1.13
2023-03-27T08:44:42.913Z,1.40
2023-03-27T08:47:20.497Z,1.17
2023-03-27T08:50:02.090Z,1.45
2023-03-27T08:52:49.533Z,1.52
2023-03-27T08:55:41.138Z,1.52
2023-03-27T08:58:23.459Z,1.65
2023-03-27T09:01:14.101Z,1.60
2023-03-27T09:04:16.092Z,1.77
2023-03-27T09:07:04.566Z,1.77
2023-03-27T09:10:00.642Z,1.60
2023-03-27T09:13:05.927Z,1.40
2023-03-27T09:15:59.528Z,1.30
2023-03-27T09:18:41.228Z,1.40
2023-03-27T09:21:30.956Z,1.52
2023-03-27T09:24:38.023Z,1.30
2023-03-27T09:27:34.210Z,1.70
2023-03-27T09:30:31.030Z,1.50
2023-03-27T09:35:40.085Z,1.30
2023-03-27T09:38:43.759Z,1.63
2023-03-27T09:41:32.886Z,2.00
2023-03-27T09:44:27.024Z,2.10
2023-03-27T09:47:09.496Z,1.70
2023-03-27T09:49:46.181Z,1.77
2023-03-27T09:52:38.718Z,1.63
2023-03-27T09:55:36.819Z,1.50
2023-03-27T09:58:31.486Z,2.10
2023-03-27T10:01:23.907Z,1.50
2023-03-27T10:04:01.005Z,1.45
2023-03-27T10:06:55.156Z,1.40
2023-03-27T10:12:17.598Z,1.60
2023-03-27T10:14:53.141Z,1.35
2023-03-27T10:17:43.947Z,1.52
2023-03-27T10:20:23.625Z,1.50
2023-03-27T10:23:09.005Z,1.27
2023-03-27T10:25:52.830Z,1.30
2023-03-27T10:28:32.415Z,1.30
2023-03-27T10:31:36.079Z,1.80
2023-03-27T10:34:39.853Z,2.90
2023-03-27T10:37:32.083Z,2.80
2023-03-27T10:40:33.294Z,2.20
2023-03-27T10:43:14.660Z,2.08
2023-03-27T10:45:58.644Z,2.38
2023-03-27T10:48:49.086Z,2.03
2023-03-27T10:51:55.900Z,1.50
2023-03-27T10:54:45.037Z,1.45
2023-03-27T10:57:35.914Z,1.00
2023-03-27T11:00:22.734Z,1.20
2023-03-27T11:03:25.625Z,1.17
2023-03-27T11:06:06.248Z,1.10
2023-03-27T11:09:07.149Z,1.20
2023-03-27T11:12:14.212Z,1.23
2023-03-27T11:14:59.155Z,1.00
2023-03-27T11:17:43.551Z,1.05
2023-03-27T11:20:36.343Z,1.40
2023-03-27T11:23:59.748Z,1.20
2023-03-27T11:27:01.967Z,1.20
2023-03-27T11:29:40.074Z,1.02
2023-03-27T11:32:40.869Z,1.20
2023-03-27T11:35:26.029Z,1.33
2023-03-27T11:38:35.761Z,1.20
2023-03-27T11:41:09.517Z,1.20
2023-03-27T11:43:42.239Z,1.40
2023-03-27T11:46:48.398Z,1.10
2023-03-27T11:50:00.770Z,1.10
2023-03-27T11:52:49.801Z,1.10
2023-03-27T11:55:55.337Z,1.20
2023-03-27T11:58:31.388Z,1.23
2023-03-27T12:01:28.590Z,1.13
2023-03-27T12:04:17.045Z,1.10
2023-03-27T12:07:37.853Z,1.30
2023-03-27T12:10:44.115Z,1.88
2023-03-27T12:13:42.893Z,1.63
2023-03-27T12:17:02.138Z,1.80
2023-03-27T12:20:26.862Z,2.00
2023-03-27T12:23:13.418Z,2.50
2023-03-27T12:26:11.654Z,2.50
2023-03-27T12:29:23.490Z,2.20
2023-03-27T12:32:41.329Z,2.20
2023-03-27T12:35:34.062Z,2.00
2023-03-27T12:38:09.938Z,1.40
2023-03-27T12:40:44.935Z,1.20
2023-03-27T12:43:35.209Z,1.40
2023-03-27T12:46:30.378Z,1.77
2023-03-27T12:49:37.127Z,1.30
2023-03-27T12:52:22.130Z,1.40
2023-03-27T12:55:32.606Z,1.35
2023-03-27T12:58:06.531Z,1.40
2023-03-27T13:01:04.553Z,1.10
2023-03-27T13:04:10.849Z,1.48
2023-03-27T13:07:01.827Z,1.40
2023-03-27T13:10:03.869Z,1.08
2023-03-27T13:12:52.926Z,1.00
2023-03-27T13:15:41.208Z,0.82
2023-03-27T13:18:26.964Z,0.70
2023-03-27T13:21:27.473Z,0.60
2023-03-27T13:24:06.584Z,0.80
2023-03-27T13:27:01.186Z,0.93
2023-03-27T13:29:37.387Z,1.10
2023-03-27T13:32:42.768Z,0.80
2023-03-27T13:35:35.789Z,0.75
2023-03-27T13:38:07.160Z,0.80
2023-03-27T13:40:58.185Z,0.90
2023-03-27T13:46:15.921Z,1.00
2023-03-27T13:49:18.050Z,0.98
2023-03-27T13:52:33.410Z,0.73
2023-03-27T13:55:20.326Z,1.10
2023-03-27T13:58:34.389Z,0.80
2023-03-27T14:01:29.876Z,1.10
2023-03-27T14:04:26.165Z,0.90
2023-03-27T14:07:43.444Z,1.20
2023-03-27T14:10:37.089Z,0.90
2023-03-27T14:13:30.500Z,1.05
2023-03-27T14:16:10.495Z,0.80
2023-03-27T14:19:03.903Z,1.00
2023-03-27T14:22:02.595Z,1.00
2023-03-27T14:24:50.952Z,0.93
2023-03-27T14:27:34.288Z,1.30
2023-03-27T14:30:32.968Z,1.25
2023-03-27T14:33:24.320Z,1.20
2023-03-27T14:36:07.635Z,1.33
2023-03-27T14:38:39.969Z,1.08
2023-03-27T14:41:30.445Z,1.10
2023-03-27T14:44:05.586Z,0.90
2023-03-27T14:46:49.827Z,1.02
2023-03-27T14:49:37.290Z,1.10
2023-03-27T14:52:13.356Z,1.02
2023-03-27T14:55:37.649Z,0.90
2023-03-27T14:59:05.200Z,1.00
2023-03-27T15:01:58.167Z,1.23
2023-03-27T15:04:49.021Z,1.30
2023-03-27T15:07:39.512Z,1.50
2023-03-27T15:11:10.115Z,1.77
2023-03-27T15:13:54.882Z,1.70
2023-03-27T15:17:09.601Z,1.50
2023-03-27T15:20:15.775Z,1.50
2023-03-27T15:23:08.120Z,1.80
2023-03-27T15:26:26.572Z,1.85
2023-03-27T15:29:24.695Z,2.20
2023-03-27T15:32:23.611Z,2.33
2023-03-27T15:35:55.261Z,2.78
2023-03-27T15:39:04.613Z,2.38
2023-03-27T15:42:13.537Z,2.33
2023-03-27T15:45:05.861Z,2.25
2023-03-27T15:47:37.541Z,2.53
2023-03-27T15:50:26.323Z,2.58
2023-03-27T15:53:49.932Z,2.65
2023-03-27T15:56:42.950Z,2.53
2023-03-27T15:59:51.886Z,2.97
2023-03-27T16:02:26.535Z,2.22
2023-03-27T16:05:34.761Z,1.98
2023-03-27T16:08:06.535Z,2.00
2023-03-27T16:14:11.927Z,1.05
2023-03-27T16:17:02.145Z,1.17
2023-03-27T16:19:50.879Z,1.15
2023-03-27T16:22:32.863Z,1.02
2023-03-27T16:25:22.230Z,1.10
2023-03-27T16:28:00.169Z,1.00
2023-03-27T16:30:49.829Z,1.00
2023-03-27T16:33:24.032Z,0.88
2023-03-27T16:36:14.567Z,1.00
2023-03-27T16:39:05.696Z,1.10
2023-03-27T16:41:55.072Z,1.38
2023-03-27T16:44:44.159Z,1.40
2023-03-27T16:47:34.721Z,1.25
2023-03-27T16:53:17.616Z,1.20
2023-03-27T16:56:07.358Z,1.00
2023-03-27T17:01:27.276Z,1.00
2023-03-27T17:03:59.300Z,1.20
2023-03-27T17:09:01.400Z,1.30
2023-03-27T17:11:32.653Z,1.13
2023-03-27T17:14:04.841Z,1.48
2023-03-27T17:16:36.789Z,1.20
2023-03-27T17:19:08.220Z,1.02
2023-03-27T17:24:10.960Z,1.10
2023-03-27T17:26:42.350Z,1.58
2023-03-27T17:29:13.831Z,1.20
2023-03-27T17:31:45.096Z,1.40
2023-03-27T17:34:16.722Z,1.30
2023-03-27T17:36:54.282Z,1.45
2023-03-27T17:39:26.619Z,1.27
2023-03-27T17:44:28.734Z,1.23
2023-03-27T17:46:59.851Z,1.50
2023-03-27T17:49:32.827Z,1.40
2023-03-27T17:52:09.212Z,1.20
2023-03-27T17:54:41.988Z,1.17
2023-03-27T17:57:13.487Z,1.20
2023-03-27T17:59:47.892Z,1.38
2023-03-27T18:02:23.430Z,1.30
2023-03-27T18:04:55.549Z,1.40
2023-03-27T18:07:27.677Z,1.55
2023-03-27T18:09:59.084Z,1.65
2023-03-27T18:12:30.595Z,1.50
2023-03-27T18:15:01.987Z,1.60
2023-03-27T18:17:36.330Z,1.50
2023-03-27T18:20:12.766Z,1.40
2023-03-27T18:22:44.387Z,1.42
2023-03-27T18:25:15.540Z,1.40
2023-03-27T18:27:46.771Z,1.73
2023-03-27T18:30:19.547Z,1.40
2023-03-27T18:32:51.077Z,1.55
2023-03-27T18:35:23.185Z,2.00
2023-03-27T18:37:55.371Z,1.95
2023-03-27T18:40:26.783Z,2.17
2023-03-27T18:42:58.089Z,1.65
2023-03-27T18:45:29.304Z,1.70
2023-03-27T18:48:00.475Z,1.80
2023-03-27T18:50:32.932Z,1.65
2023-03-27T18:53:04.503Z,1.60
2023-03-27T18:55:35.767Z,1.92
2023-03-27T18:58:07.878Z,1.67
2023-03-27T19:00:39.946Z,2.38
2023-03-27T19:03:19.447Z,2.40
2023-03-27T19:05:50.980Z,2.13
2023-03-27T19:08:23.243Z,1.85
2023-03-27T19:10:59.098Z,1.38
2023-03-27T19:16:34.008Z,1.00
2023-03-27T19:19:24.358Z,1.30
2023-03-27T19:22:28.124Z,2.60
2023-03-27T19:25:07.252Z,1.30
2023-03-27T19:27:39.895Z,1.00
2023-03-27T19:30:13.314Z,1.17
2023-03-27T19:32:44.680Z,0.88
2023-03-27T19:35:16.196Z,1.30
2023-03-27T19:37:47.615Z,1.00
2023-03-27T19:40:20.127Z,1.38
2023-03-27T19:42:52.211Z,1.30
2023-03-27T19:45:23.439Z,1.20
2023-03-27T19:47:55.350Z,1.80
2023-03-27T19:53:11.310Z,1.48
2023-03-27T19:55:43.750Z,1.73
2023-03-27T19:58:15.156Z,1.50
2023-03-27T20:00:51.608Z,2.08
2023-03-27T20:03:25.846Z,1.25
2023-03-27T20:06:06.777Z,1.10
2023-03-27T20:08:41.125Z,1.10
2023-03-27T20:11:12.692Z,0.80
2023-03-27T20:13:55.272Z,0.77
2023-03-27T20:16:29.825Z,0.82
2023-03-27T20:19:07.535Z,0.80
2023-03-27T20:21:42.686Z,0.73
2023-03-27T20:24:18.768Z,0.70
2023-03-27T20:26:58.531Z,0.88
2023-03-27T20:29:30.231Z,0.70
2023-03-27T20:32:01.746Z,0.70
2023-03-27T20:34:33.849Z,0.73
2023-03-27T20:37:13.484Z,0.70
2023-03-27T20:39:50.338Z,0.85
2023-03-27T20:42:24.664Z,0.90
2023-03-27T20:47:41.043Z,0.75
2023-03-27T20:50:13.344Z,0.90
2023-03-27T20:52:48.312Z,1.00
2023-03-27T20:55:32.484Z,1.00
2023-03-27T20:58:08.040Z,1.10
2023-03-27T21:00:39.412Z,1.10
2023-03-27T21:03:11.199Z,0.80
2023-03-27T21:05:42.637Z,0.90
2023-03-27T21:08:14.090Z,0.80
2023-03-27T21:10:45.210Z,0.80
2023-03-27T21:13:16.502Z,0.77
2023-03-27T21:15:48.109Z,0.85
2023-03-27T21:18:21.275Z,1.00
2023-03-27T21:20:53.150Z,0.70
2023-03-27T21:25:54.960Z,1.10
2023-03-27T21:28:26.675Z,1.08
2023-03-27T21:30:57.830Z,0.65
2023-03-27T21:33:28.951Z,0.85
2023-03-27T21:36:00.394Z,0.70
2023-03-27T21:41:04.461Z,0.90
2023-03-27T21:43:36.622Z,0.90
2023-03-27T21:46:08.330Z,0.80
2023-03-27T21:48:41.897Z,0.70
2023-03-27T21:51:13.593Z,0.70
2023-03-27T21:53:44.725Z,0.73
2023-03-27T21:56:16.154Z,0.80
2023-03-27T21:58:47.441Z,0.65
2023-03-27T22:03:49.788Z,0.50
2023-03-27T22:06:20.950Z,0.40
2023-03-27T22:08:52.003Z,0.55
2023-03-27T22:11:23.290Z,0.60
2023-03-27T22:13:54.602Z,0.60
2023-03-27T22:18:56.711Z,0.43
2023-03-27T22:21:30.791Z,0.55
2023-03-27T22:24:02.264Z,0.60
2023-03-27T22:29:09.226Z,0.63
2023-03-27T22:31:40.498Z,0.52
2023-03-27T22:34:12.225Z,0.55
2023-03-27T22:36:43.427Z,0.60
2023-03-27T22:39:14.812Z,0.50
2023-03-27T22:41:46.003Z,0.50
2023-03-27T22:46:48.365Z,0.65
2023-03-27T22:49:19.568Z,0.65
2023-03-27T22:51:50.885Z,0.57
2023-03-27T22:54:22.200Z,0.57
2023-03-27T22:56:56.492Z,1.00
2023-03-27T22:59:28.041Z,0.65
2023-03-27T23:01:59.542Z,1.00
2023-03-27T23:04:33.932Z,0.80
2023-03-27T23:07:05.337Z,1.48
2023-03-27T23:09:36.954Z,0.80
2023-03-27T23:14:39.548Z,0.63
2023-03-27T23:17:10.946Z,0.52
2023-03-27T23:19:42.348Z,0.70
2023-03-27T23:22:13.662Z,0.90
2023-03-27T23:24:44.774Z,0.68
2023-03-27T23:27:15.840Z,0.50
2023-03-27T23:29:47.388Z,0.60
2023-03-27T23:32:18.485Z,0.50
2023-03-27T23:34:49.950Z,0.60
2023-03-27T23:37:21.320Z,0.50
2023-03-27T23:39:52.591Z,0.70
2023-03-27T23:42:23.677Z,0.70
2023-03-27T23:44:55.872Z,0.50
2023-03-27T23:49:57.928Z,0.50
2023-03-27T23:52:28.866Z,0.47
2023-03-27T23:55:00.180Z,0.80
2023-03-27T23:57:31.732Z,0.70
